createdAt,value
2022-09-28T00:00:50.126Z,8.93
2022-09-28T00:03:17.062Z,9.65
2022-09-28T00:05:44.016Z,8.93
2022-09-28T00:08:10.964Z,8.18
2022-09-28T00:10:38.235Z,7.70
2022-09-28T00:13:06.946Z,7.70
2022-09-28T00:15:34.135Z,8.43
2022-09-28T00:18:01.236Z,9.13
2022-09-28T00:20:28.246Z,7.20
2022-09-28T00:22:55.178Z,7.03
2022-09-28T00:25:22.245Z,7.00
2022-09-28T00:27:52.006Z,7.70
2022-09-28T00:30:18.977Z,8.35
2022-09-28T00:32:45.916Z,7.85
2022-09-28T00:35:12.886Z,7.43
2022-09-28T00:37:39.896Z,7.53
2022-09-28T00:40:07.415Z,7.70
2022-09-28T00:42:34.488Z,8.48
2022-09-28T00:45:01.436Z,7.78
2022-09-28T00:47:33.886Z,7.70
2022-09-28T00:50:12.835Z,9.30
2022-09-28T00:52:53.355Z,8.38
2022-09-28T00:55:26.929Z,8.65
2022-09-28T00:57:58.115Z,8.93
2022-09-28T01:00:25.406Z,9.02
2022-09-28T01:02:52.860Z,8.50
2022-09-28T01:05:22.136Z,8.85
2022-09-28T01:07:49.300Z,9.48
2022-09-28T01:10:16.667Z,8.70
2022-09-28T01:12:43.721Z,9.45
2022-09-28T01:15:11.315Z,9.05
2022-09-28T01:18:13.316Z,9.63
2022-09-28T01:20:57.196Z,9.77
2022-09-28T01:23:54.835Z,11.18
2022-09-28T01:26:24.586Z,9.70
2022-09-28T01:28:58.235Z,10.50
2022-09-28T01:31:29.949Z,10.50
2022-09-28T01:34:16.296Z,11.02
2022-09-28T01:36:51.526Z,10.30
2022-09-28T01:39:30.356Z,9.35
2022-09-28T01:42:01.786Z,10.00
2022-09-28T01:44:33.025Z,10.20
2022-09-28T01:47:04.402Z,9.45
2022-09-28T01:49:45.476Z,9.73
2022-09-28T01:52:40.647Z,10.77
2022-09-28T01:55:39.986Z,10.00
2022-09-28T01:58:24.207Z,9.20
2022-09-28T02:00:57.543Z,9.02
2022-09-28T02:03:32.116Z,9.00
2022-09-28T02:06:25.245Z,9.43
2022-09-28T02:08:59.396Z,8.98
2022-09-28T02:11:26.646Z,9.57
2022-09-28T02:13:55.646Z,8.85
2022-09-28T02:16:40.791Z,9.10
2022-09-28T02:19:16.855Z,8.50
2022-09-28T02:21:49.016Z,8.00
2022-09-28T02:24:23.334Z,9.07
2022-09-28T02:26:52.237Z,8.98
2022-09-28T02:29:19.241Z,10.90
2022-09-28T02:31:46.382Z,8.50
2022-09-28T02:34:13.512Z,8.18
2022-09-28T02:36:40.526Z,9.90
2022-09-28T02:39:14.380Z,9.23
2022-09-28T02:42:17.326Z,8.63
2022-09-28T02:45:09.078Z,8.07
2022-09-28T02:48:13.055Z,9.00
2022-09-28T02:51:03.177Z,8.05
2022-09-28T02:53:48.178Z,6.60
2022-09-28T02:56:21.286Z,5.95
2022-09-28T02:59:18.720Z,6.40
2022-09-28T03:02:13.363Z,7.13
2022-09-28T03:04:46.857Z,7.00
2022-09-28T03:07:23.035Z,7.72
2022-09-28T03:10:17.716Z,7.85
2022-09-28T03:12:47.446Z,8.05
2022-09-28T03:15:26.054Z,7.30
2022-09-28T03:17:53.399Z,7.82
2022-09-28T03:20:20.848Z,6.93
2022-09-28T03:23:00.518Z,8.18
2022-09-28T03:25:35.031Z,8.10
2022-09-28T03:28:02.395Z,6.72
2022-09-28T03:30:29.362Z,6.65
2022-09-28T03:33:00.536Z,6.57
2022-09-28T03:35:27.616Z,6.38
2022-09-28T03:37:56.321Z,6.68
2022-09-28T03:40:23.606Z,7.03
2022-09-28T03:42:50.635Z,6.40
2022-09-28T03:45:17.636Z,6.13
2022-09-28T03:47:48.751Z,5.30
2022-09-28T03:50:15.977Z,4.68
2022-09-28T03:52:43.145Z,4.55
2022-09-28T03:55:10.945Z,4.13
2022-09-28T03:57:38.175Z,4.55
2022-09-28T04:00:06.324Z,4.45
2022-09-28T04:02:35.077Z,4.45
2022-09-28T04:05:02.497Z,4.38
2022-09-28T04:07:31.248Z,3.58
2022-09-28T04:09:58.417Z,4.15
2022-09-28T04:12:25.407Z,5.25
2022-09-28T04:14:52.316Z,4.15
2022-09-28T04:17:19.311Z,3.47
2022-09-28T04:19:47.522Z,3.47
2022-09-28T04:22:14.457Z,3.45
2022-09-28T04:24:43.600Z,2.47
2022-09-28T04:27:29.327Z,3.70
2022-09-28T04:29:56.270Z,2.90
2022-09-28T04:32:23.402Z,6.45
2022-09-28T04:34:51.425Z,4.57
2022-09-28T04:37:18.364Z,1.85
2022-09-28T04:39:48.467Z,3.13
2022-09-28T04:42:16.095Z,2.97
2022-09-28T04:44:43.159Z,4.22
2022-09-28T04:47:10.115Z,2.17
2022-09-28T04:49:38.465Z,2.05
2022-09-28T04:52:06.551Z,2.58
2022-09-28T04:54:33.796Z,2.13
2022-09-28T04:57:01.454Z,2.85
2022-09-28T04:59:28.436Z,4.05
2022-09-28T05:01:55.466Z,1.85
2022-09-28T05:04:25.988Z,3.20
2022-09-28T05:06:53.256Z,2.17
2022-09-28T05:09:20.296Z,2.22
2022-09-28T05:11:50.036Z,3.88
2022-09-28T05:14:18.086Z,2.65
2022-09-28T05:16:45.127Z,1.88
2022-09-28T05:19:12.606Z,1.95
2022-09-28T05:21:39.927Z,1.52
2022-09-28T05:24:07.844Z,1.80
2022-09-28T05:26:35.157Z,2.53
2022-09-28T05:29:02.126Z,3.38
2022-09-28T05:31:29.232Z,1.77
2022-09-28T05:33:56.357Z,2.45
2022-09-28T05:36:26.864Z,1.70
2022-09-28T05:38:53.832Z,2.13
2022-09-28T05:41:20.817Z,2.42
2022-09-28T05:43:47.844Z,1.27
2022-09-28T05:46:14.942Z,1.92
2022-09-28T05:48:41.994Z,1.73
2022-09-28T05:51:10.300Z,2.28
2022-09-28T05:53:37.248Z,2.60
2022-09-28T05:56:04.286Z,2.15
2022-09-28T05:58:31.301Z,5.65
2022-09-28T06:00:58.775Z,2.80
2022-09-28T06:03:25.997Z,1.13
2022-09-28T06:05:53.306Z,2.78
2022-09-28T06:08:20.357Z,2.22
2022-09-28T06:10:48.136Z,1.70
2022-09-28T06:13:15.136Z,2.10
2022-09-28T06:15:42.918Z,2.75
2022-09-28T06:18:15.083Z,1.33
2022-09-28T06:20:43.130Z,1.67
2022-09-28T06:23:11.556Z,1.40
2022-09-28T06:25:40.276Z,2.92
2022-09-28T06:28:13.776Z,1.17
2022-09-28T06:30:41.614Z,2.15
2022-09-28T06:33:12.702Z,1.17
2022-09-28T06:35:40.842Z,0.60
2022-09-28T06:38:08.285Z,1.88
2022-09-28T06:40:35.882Z,1.60
2022-09-28T06:43:12.677Z,1.25
2022-09-28T06:45:39.606Z,3.08
2022-09-28T06:48:07.203Z,1.50
2022-09-28T06:50:37.546Z,1.27
2022-09-28T06:53:09.621Z,1.13
2022-09-28T06:55:40.048Z,1.35
2022-09-28T06:58:10.325Z,1.60
2022-09-28T07:00:38.785Z,1.25
2022-09-28T07:03:08.598Z,1.35
2022-09-28T07:05:41.496Z,1.10
2022-09-28T07:08:08.466Z,2.13
2022-09-28T07:10:35.455Z,1.70
2022-09-28T07:13:04.967Z,1.40
2022-09-28T07:15:32.715Z,1.80
2022-09-28T07:18:04.334Z,1.60
2022-09-28T07:20:46.308Z,2.38
2022-09-28T07:23:19.947Z,1.45
2022-09-28T07:25:48.025Z,1.52
2022-09-28T07:28:17.887Z,2.10
2022-09-28T07:30:45.483Z,3.10
2022-09-28T07:33:15.179Z,1.92
2022-09-28T07:35:43.037Z,2.92
2022-09-28T07:38:10.899Z,3.25
2022-09-28T07:40:56.983Z,2.45
2022-09-28T07:43:24.065Z,1.45
2022-09-28T07:45:53.003Z,3.88
2022-09-28T07:48:20.941Z,5.38
2022-09-28T07:50:56.978Z,2.20
2022-09-28T07:53:25.615Z,2.55
2022-09-28T07:55:57.397Z,2.55
2022-09-28T07:58:24.403Z,2.50
2022-09-28T08:00:57.653Z,2.22
2022-09-28T08:03:24.658Z,2.95
2022-09-28T08:05:51.577Z,2.60
2022-09-28T08:08:20.378Z,2.05
2022-09-28T08:10:47.776Z,1.65
2022-09-28T08:13:16.403Z,5.10
2022-09-28T08:15:43.446Z,2.25
2022-09-28T08:18:10.816Z,1.63
2022-09-28T08:20:56.607Z,4.22
2022-09-28T08:23:24.011Z,6.75
2022-09-28T08:25:55.538Z,1.52
2022-09-28T08:28:24.227Z,1.73
2022-09-28T08:30:51.489Z,1.58
2022-09-28T08:33:21.346Z,3.20
2022-09-28T08:35:48.821Z,2.38
2022-09-28T08:38:17.800Z,1.25
2022-09-28T08:40:50.651Z,1.63
2022-09-28T08:43:29.556Z,3.20
2022-09-28T08:45:59.269Z,4.10
2022-09-28T08:48:51.775Z,2.97
2022-09-28T08:51:27.316Z,1.67
2022-09-28T08:54:21.081Z,1.88
2022-09-28T08:56:53.049Z,2.55
2022-09-28T08:59:30.636Z,1.58
2022-09-28T09:02:01.750Z,2.90
2022-09-28T09:04:29.783Z,3.03
2022-09-28T09:07:05.317Z,2.75
2022-09-28T09:12:29.701Z,4.60
2022-09-28T09:15:31.840Z,1.98
2022-09-28T09:18:20.165Z,5.22
2022-09-28T09:20:58.592Z,2.58
2022-09-28T09:23:38.616Z,4.05
2022-09-28T09:26:22.809Z,2.33
2022-09-28T09:29:15.449Z,2.45
2022-09-28T09:32:05.017Z,5.63
2022-09-28T09:34:54.898Z,2.53
2022-09-28T09:37:48.017Z,2.38
2022-09-28T09:40:30.573Z,2.85
2022-09-28T09:43:13.112Z,2.70
2022-09-28T09:45:48.653Z,2.95
2022-09-28T09:51:01.226Z,4.55
2022-09-28T09:53:43.815Z,3.33
2022-09-28T09:56:47.811Z,3.38
2022-09-28T09:59:20.040Z,3.72
2022-09-28T10:01:47.487Z,2.95
2022-09-28T10:04:26.831Z,4.95
2022-09-28T10:06:59.657Z,3.38
2022-09-28T10:09:39.695Z,3.85
2022-09-28T10:12:12.264Z,3.33
2022-09-28T10:14:39.265Z,4.22
2022-09-28T10:17:06.421Z,2.90
2022-09-28T10:19:35.426Z,3.15
2022-09-28T10:22:04.906Z,3.42
2022-09-28T10:24:36.685Z,5.20
2022-09-28T10:27:07.974Z,6.63
2022-09-28T10:29:44.638Z,3.45
2022-09-28T10:32:25.606Z,3.72
2022-09-28T10:34:56.268Z,3.22
2022-09-28T10:37:24.345Z,4.75
2022-09-28T10:39:53.886Z,2.78
2022-09-28T10:42:25.976Z,3.47
2022-09-28T10:45:19.907Z,2.70
2022-09-28T10:47:47.316Z,3.30
2022-09-28T10:50:26.687Z,2.35
2022-09-28T10:52:54.152Z,3.30
2022-09-28T10:55:21.076Z,3.33
2022-09-28T10:57:48.766Z,3.20
2022-09-28T11:00:42.490Z,2.95
2022-09-28T11:03:25.775Z,4.80
2022-09-28T11:06:02.545Z,4.93
2022-09-28T11:08:37.641Z,2.83
2022-09-28T11:11:16.426Z,2.97
2022-09-28T11:13:45.030Z,3.13
2022-09-28T11:16:38.648Z,3.83
2022-09-28T11:19:19.270Z,3.40
2022-09-28T11:21:46.356Z,4.38
2022-09-28T11:24:19.130Z,3.95
2022-09-28T11:26:49.713Z,4.70
2022-09-28T11:29:30.525Z,4.28
2022-09-28T11:32:05.405Z,4.20
2022-09-28T11:34:58.763Z,4.65
2022-09-28T11:37:49.741Z,4.25
2022-09-28T11:40:29.429Z,4.60
2022-09-28T11:43:13.321Z,8.13
2022-09-28T11:45:45.867Z,4.88
2022-09-28T11:48:17.227Z,4.35
2022-09-28T11:51:08.796Z,3.78
2022-09-28T11:53:47.725Z,2.85
2022-09-28T11:56:19.120Z,4.22
2022-09-28T11:59:06.166Z,5.75
2022-09-28T12:01:42.477Z,5.40
2022-09-28T12:04:27.550Z,4.18
2022-09-28T12:07:01.810Z,5.68
2022-09-28T12:09:40.085Z,3.55
2022-09-28T12:12:34.786Z,5.93
2022-09-28T12:15:12.635Z,5.57
2022-09-28T12:18:03.134Z,5.75
2022-09-28T12:20:34.226Z,4.05
2022-09-28T12:23:26.036Z,4.55
2022-09-28T12:26:11.987Z,4.53
2022-09-28T12:28:46.076Z,4.97
2022-09-28T12:31:32.123Z,5.25
2022-09-28T12:33:59.569Z,4.95
2022-09-28T12:37:01.275Z,8.00
2022-09-28T12:40:06.251Z,5.65
2022-09-28T12:43:01.673Z,4.82
2022-09-28T12:46:11.513Z,5.03
2022-09-28T12:49:36.693Z,3.63
2022-09-28T12:51:48.637Z,5.65
2022-09-28T12:54:55.192Z,5.45
2022-09-28T12:57:48.242Z,6.22
2022-09-28T13:00:23.063Z,4.20
2022-09-28T13:03:05.986Z,6.40
2022-09-28T13:05:50.006Z,4.00
2022-09-28T13:08:30.586Z,4.03
2022-09-28T13:11:09.876Z,3.63
2022-09-28T13:13:54.467Z,5.47
2022-09-28T13:17:18.119Z,4.32
2022-09-28T13:20:14.149Z,3.92
2022-09-28T13:22:56.266Z,5.40
2022-09-28T13:25:33.167Z,10.05
2022-09-28T13:28:05.631Z,5.00
2022-09-28T13:30:35.702Z,4.00
2022-09-28T13:33:06.097Z,4.45
2022-09-28T13:35:33.558Z,5.05
2022-09-28T13:38:18.717Z,5.68
2022-09-28T13:41:04.166Z,4.00
2022-09-28T13:43:42.029Z,8.73
2022-09-28T13:46:32.492Z,4.93
2022-09-28T13:49:27.039Z,5.32
2022-09-28T13:52:13.136Z,5.35
2022-09-28T13:55:01.412Z,5.38
2022-09-28T13:57:41.006Z,4.30
2022-09-28T14:00:13.837Z,4.40
2022-09-28T14:03:00.839Z,4.75
2022-09-28T14:05:41.867Z,4.55
2022-09-28T14:08:08.939Z,3.78
2022-09-28T14:10:52.054Z,2.80
2022-09-28T14:13:41.956Z,5.38
2022-09-28T14:16:18.438Z,3.88
2022-09-28T14:18:52.896Z,4.45
2022-09-28T14:22:16.508Z,3.40
2022-09-28T14:25:00.531Z,3.63
2022-09-28T14:27:55.646Z,3.88
2022-09-28T14:30:43.002Z,5.32
2022-09-28T14:38:04.167Z,3.75
2022-09-28T14:52:58.696Z,4.38
2022-09-28T15:00:38.452Z,7.60
2022-09-28T15:03:22.856Z,5.70
2022-09-28T15:09:57.229Z,5.00
2022-09-28T15:15:57.349Z,4.68
2022-09-28T15:22:00.066Z,7.70
2022-09-28T15:24:33.689Z,5.55
2022-09-28T15:27:02.226Z,3.03
2022-09-28T15:29:33.609Z,15.75
2022-09-28T15:32:01.133Z,5.85
2022-09-28T15:34:48.499Z,5.00
2022-09-28T15:37:22.645Z,5.70
2022-09-28T15:39:51.452Z,6.63
2022-09-28T15:42:19.257Z,4.60
2022-09-28T15:45:25.599Z,6.10
2022-09-28T15:48:26.421Z,4.45
2022-09-28T15:51:00.396Z,4.07
2022-09-28T15:53:27.876Z,6.25
2022-09-28T15:56:03.675Z,8.52
2022-09-28T15:58:30.797Z,3.58
2022-09-28T16:01:22.693Z,6.80
2022-09-28T16:03:49.722Z,3.58
2022-09-28T16:06:17.038Z,3.65
2022-09-28T16:08:49.048Z,4.90
2022-09-28T16:11:26.249Z,4.20
2022-09-28T16:14:09.038Z,3.88
2022-09-28T16:16:46.509Z,4.35
2022-09-28T16:19:24.781Z,6.05
2022-09-28T16:21:53.685Z,5.97
2022-09-28T16:24:25.755Z,4.45
2022-09-28T16:26:59.607Z,4.13
2022-09-28T16:29:39.256Z,5.30
2022-09-28T16:32:27.637Z,5.38
2022-09-28T16:35:11.045Z,4.75
2022-09-28T16:37:41.025Z,4.38
2022-09-28T16:40:12.190Z,6.18
2022-09-28T16:42:42.655Z,5.90
2022-09-28T16:45:19.995Z,5.20
2022-09-28T16:47:53.103Z,6.15
2022-09-28T16:50:21.478Z,6.65
2022-09-28T16:53:21.768Z,6.85
2022-09-28T16:55:52.921Z,6.47
2022-09-28T16:58:19.896Z,5.40
2022-09-28T17:00:46.936Z,5.32
2022-09-28T17:03:17.400Z,5.88
2022-09-28T17:05:46.316Z,4.68
2022-09-28T17:08:17.560Z,8.82
2022-09-28T17:11:13.923Z,6.78
2022-09-28T17:13:42.576Z,4.65
2022-09-28T17:16:37.081Z,5.97
2022-09-28T17:19:26.292Z,4.85
2022-09-28T17:21:53.476Z,6.35
2022-09-28T17:24:21.247Z,4.70
2022-09-28T17:26:51.249Z,5.18
2022-09-28T17:29:19.258Z,4.20
2022-09-28T17:31:47.596Z,6.88
2022-09-28T17:34:19.977Z,5.80
2022-09-28T17:36:50.668Z,6.47
2022-09-28T17:39:19.346Z,4.50
2022-09-28T17:41:46.925Z,4.00
2022-09-28T17:44:16.873Z,5.07
2022-09-28T17:46:48.846Z,4.40
2022-09-28T17:49:17.070Z,4.97
2022-09-28T17:51:44.341Z,7.18
2022-09-28T17:54:13.141Z,4.38
2022-09-28T17:56:40.211Z,7.90
2022-09-28T17:59:10.990Z,4.95
2022-09-28T18:01:39.965Z,4.45
2022-09-28T18:04:09.104Z,6.05
2022-09-28T18:06:37.489Z,6.55
2022-09-28T18:09:05.319Z,5.55
2022-09-28T18:11:33.417Z,9.27
2022-09-28T18:14:00.781Z,3.90
2022-09-28T18:16:29.059Z,4.85
2022-09-28T18:18:56.516Z,4.43
2022-09-28T18:21:23.686Z,5.47
2022-09-28T18:23:50.901Z,5.47
2022-09-28T18:26:21.268Z,4.80
2022-09-28T18:28:48.381Z,5.93
2022-09-28T18:31:16.351Z,5.93
2022-09-28T18:33:43.510Z,5.50
2022-09-28T18:36:10.585Z,6.95
2022-09-28T18:38:38.257Z,4.47
2022-09-28T18:41:18.206Z,5.78
2022-09-28T18:43:51.522Z,5.18
2022-09-28T18:46:19.000Z,4.25
2022-09-28T18:48:47.596Z,5.38
2022-09-28T18:51:15.016Z,6.78
2022-09-28T18:53:42.279Z,3.90
2022-09-28T18:56:14.835Z,4.63
2022-09-28T18:58:43.066Z,4.15
2022-09-28T19:01:31.501Z,3.90
2022-09-28T19:04:00.691Z,7.13
2022-09-28T19:06:28.275Z,5.72
2022-09-28T19:08:56.015Z,7.38
2022-09-28T19:11:23.979Z,3.45
2022-09-28T19:13:51.357Z,7.47
2022-09-28T19:16:21.539Z,5.53
2022-09-28T19:18:49.909Z,8.48
2022-09-28T19:21:17.247Z,6.05
2022-09-28T19:23:49.212Z,7.15
2022-09-28T19:26:19.346Z,6.53
2022-09-28T19:28:46.792Z,4.53
2022-09-28T19:31:14.217Z,6.53
2022-09-28T19:33:42.056Z,6.07
2022-09-28T19:36:14.968Z,5.45
2022-09-28T19:38:42.345Z,6.22
2022-09-28T19:41:37.610Z,6.20
2022-09-28T19:44:09.477Z,6.10
2022-09-28T19:46:38.413Z,8.25
2022-09-28T19:49:08.436Z,7.75
2022-09-28T19:51:35.466Z,8.35
2022-09-28T19:54:03.757Z,8.52
2022-09-28T19:56:32.941Z,6.00
2022-09-28T19:59:04.196Z,4.28
2022-09-28T20:01:35.889Z,6.40
2022-09-28T20:04:03.096Z,5.18
2022-09-28T20:06:32.066Z,6.32
2022-09-28T20:09:01.711Z,6.03
2022-09-28T20:11:32.611Z,6.30
2022-09-28T20:14:00.372Z,4.72
2022-09-28T20:16:29.025Z,5.82
2022-09-28T20:19:01.416Z,6.38
2022-09-28T20:21:29.979Z,3.88
2022-09-28T20:23:57.596Z,4.63
2022-09-28T20:26:26.797Z,5.68
2022-09-28T20:28:56.932Z,6.57
2022-09-28T20:31:25.398Z,6.32
2022-09-28T20:33:52.937Z,6.75
2022-09-28T20:36:22.251Z,7.53
2022-09-28T20:38:53.786Z,4.15
2022-09-28T20:41:24.475Z,5.22
2022-09-28T20:43:59.629Z,5.35
2022-09-28T20:46:30.251Z,6.03
2022-09-28T20:49:01.026Z,4.88
2022-09-28T20:51:29.328Z,9.02
2022-09-28T20:53:58.170Z,4.63
2022-09-28T20:56:30.675Z,4.28
2022-09-28T20:58:57.826Z,6.22
2022-09-28T21:01:30.637Z,4.55
2022-09-28T21:04:00.138Z,5.35
2022-09-28T21:06:29.470Z,5.95
2022-09-28T21:08:58.986Z,6.15
2022-09-28T21:11:28.356Z,5.30
2022-09-28T21:13:59.057Z,6.38
2022-09-28T21:16:27.886Z,6.15
2022-09-28T21:18:55.126Z,6.28
2022-09-28T21:21:23.863Z,5.43
2022-09-28T21:23:58.129Z,6.05
2022-09-28T21:26:28.056Z,6.72
2022-09-28T21:28:56.737Z,5.82
2022-09-28T21:31:28.694Z,8.13
2022-09-28T21:33:57.196Z,6.32
2022-09-28T21:36:24.672Z,4.75
2022-09-28T21:38:51.790Z,5.10
2022-09-28T21:41:19.959Z,5.75
2022-09-28T21:43:47.067Z,5.88
2022-09-28T21:46:14.227Z,6.63
2022-09-28T21:48:41.371Z,7.05
2022-09-28T21:51:12.680Z,5.70
2022-09-28T21:53:39.936Z,7.57
2022-09-28T21:56:11.851Z,5.82
2022-09-28T21:58:40.218Z,5.75
2022-09-28T22:01:22.240Z,4.85
2022-09-28T22:03:51.747Z,6.85
2022-09-28T22:06:20.446Z,5.68
2022-09-28T22:08:48.926Z,6.43
2022-09-28T22:11:21.961Z,4.30
2022-09-28T22:13:56.775Z,5.40
2022-09-28T22:16:27.707Z,7.25
2022-09-28T22:18:55.076Z,7.25
2022-09-28T22:21:35.128Z,5.15
2022-09-28T22:24:04.931Z,5.85
2022-09-28T22:26:34.208Z,5.15
2022-09-28T22:29:04.708Z,4.95
2022-09-28T22:31:34.357Z,5.35
2022-09-28T22:34:01.706Z,5.35
2022-09-28T22:36:29.491Z,5.97
2022-09-28T22:38:57.239Z,4.18
2022-09-28T22:41:25.088Z,3.60
2022-09-28T22:43:54.736Z,7.45
2022-09-28T22:46:25.456Z,7.07
2022-09-28T22:48:56.888Z,6.13
2022-09-28T22:51:43.636Z,5.78
2022-09-28T22:54:15.356Z,6.65
2022-09-28T22:56:43.805Z,6.75
2022-09-28T22:59:11.773Z,5.57
2022-09-28T23:01:39.143Z,6.05
2022-09-28T23:04:06.966Z,7.75
2022-09-28T23:06:34.065Z,5.65
2022-09-28T23:09:01.638Z,5.35
2022-09-28T23:11:29.436Z,6.47
2022-09-28T23:13:59.230Z,9.20
2022-09-28T23:16:27.025Z,7.38
2022-09-28T23:18:55.466Z,7.10
2022-09-28T23:21:25.837Z,6.22
2022-09-28T23:23:58.126Z,5.20
2022-09-28T23:26:28.438Z,6.60
2022-09-28T23:28:55.686Z,6.55
2022-09-28T23:31:28.820Z,4.72
2022-09-28T23:34:04.486Z,4.45
2022-09-28T23:38:59.336Z,6.18
2022-09-28T23:41:26.491Z,8.13
2022-09-28T23:43:53.621Z,6.15
2022-09-28T23:46:21.324Z,6.85
2022-09-28T23:48:49.419Z,6.72
2022-09-28T23:51:16.592Z,5.22
2022-09-28T23:53:43.781Z,6.15
2022-09-28T23:56:11.196Z,6.28
2022-09-28T23:58:38.655Z,5.10
